createdAt,value
2018-08-30T00:01:36.116Z,90.40
2018-08-30T00:04:05.211Z,90.40
2018-08-30T00:06:34.214Z,90.50
2018-08-30T00:09:03.273Z,90.50
2018-08-30T00:11:32.225Z,90.70
2018-08-30T00:14:01.231Z,90.70
2018-08-30T00:16:30.173Z,90.80
2018-08-30T00:18:59.179Z,90.70
2018-08-30T00:21:28.206Z,90.80
2018-08-30T00:23:57.192Z,90.70
2018-08-30T00:26:26.266Z,91.00
2018-08-30T00:28:55.241Z,90.90
2018-08-30T00:31:24.306Z,91.00
2018-08-30T00:33:53.327Z,91.10
2018-08-30T00:36:22.369Z,91.00
2018-08-30T00:38:51.316Z,91.20
2018-08-30T00:41:20.336Z,91.20
2018-08-30T00:43:49.346Z,91.40
2018-08-30T00:46:18.341Z,91.40
2018-08-30T00:48:47.332Z,91.50
2018-08-30T00:51:16.300Z,91.50
2018-08-30T00:53:45.255Z,91.40
2018-08-30T00:56:14.219Z,91.50
2018-08-30T00:58:43.174Z,91.50
2018-08-30T01:01:12.190Z,91.40
2018-08-30T01:03:41.214Z,91.30
2018-08-30T01:06:10.091Z,91.60
2018-08-30T01:08:39.061Z,91.60
2018-08-30T01:11:08.120Z,91.60
2018-08-30T01:13:37.126Z,91.40
2018-08-30T01:16:06.195Z,91.30
2018-08-30T01:18:35.418Z,91.20
2018-08-30T01:21:04.415Z,91.10
2018-08-30T01:23:33.506Z,91.10
2018-08-30T01:26:02.530Z,91.10
2018-08-30T01:28:31.559Z,91.10
2018-08-30T01:31:00.544Z,91.00
2018-08-30T01:33:29.566Z,91.00
2018-08-30T01:35:58.605Z,91.00
2018-08-30T01:38:27.630Z,91.00
2018-08-30T01:40:56.636Z,91.10
2018-08-30T01:43:25.629Z,91.20
2018-08-30T01:45:54.636Z,92.40
2018-08-30T01:48:23.625Z,91.30
2018-08-30T01:50:52.585Z,90.90
2018-08-30T01:53:21.465Z,91.30
2018-08-30T01:55:50.483Z,91.30
2018-08-30T01:58:19.495Z,91.50
2018-08-30T02:00:48.445Z,91.10
2018-08-30T02:03:17.392Z,91.10
2018-08-30T02:05:46.330Z,91.00
2018-08-30T02:08:15.260Z,91.00
2018-08-30T02:10:44.291Z,90.90
2018-08-30T02:13:13.334Z,90.90
2018-08-30T02:15:42.294Z,91.00
2018-08-30T02:18:11.192Z,91.30
2018-08-30T02:20:40.205Z,91.30
2018-08-30T02:23:09.155Z,91.30
2018-08-30T02:25:38.126Z,91.30
2018-08-30T02:28:07.153Z,91.40
2018-08-30T02:30:36.540Z,91.40
2018-08-30T02:33:05.572Z,91.40
2018-08-30T02:35:34.640Z,91.30
2018-08-30T02:38:03.799Z,91.10
2018-08-30T02:40:33.157Z,91.20
2018-08-30T02:43:02.188Z,91.20
2018-08-30T02:45:31.168Z,91.40
2018-08-30T02:48:00.049Z,91.10
2018-08-30T02:50:29.007Z,91.30
2018-08-30T02:52:58.025Z,90.70
2018-08-30T02:55:27.007Z,88.90
2018-08-30T02:57:55.931Z,88.30
2018-08-30T03:00:24.945Z,87.30
2018-08-30T03:02:54.017Z,86.60
2018-08-30T03:05:23.084Z,85.50
2018-08-30T03:07:52.056Z,86.20
2018-08-30T03:10:21.135Z,85.50
2018-08-30T03:12:50.117Z,85.10
2018-08-30T03:15:19.045Z,84.70
2018-08-30T03:17:48.053Z,84.50
2018-08-30T03:20:17.045Z,84.70
2018-08-30T03:22:46.097Z,84.30
2018-08-30T03:25:15.132Z,84.20
2018-08-30T03:27:44.115Z,84.20
2018-08-30T03:30:13.118Z,84.10
2018-08-30T03:32:42.085Z,84.10
2018-08-30T03:35:11.082Z,84.20
2018-08-30T03:37:40.099Z,82.20
2018-08-30T03:40:09.085Z,81.90
2018-08-30T03:42:38.026Z,81.30
2018-08-30T03:45:07.080Z,81.40
2018-08-30T03:47:36.041Z,81.50
2018-08-30T03:50:05.086Z,81.30
2018-08-30T03:52:34.073Z,80.80
2018-08-30T03:55:03.226Z,81.10
2018-08-30T03:57:32.277Z,80.80
2018-08-30T04:00:01.225Z,81.00
2018-08-30T04:02:30.161Z,81.30
2018-08-30T04:04:59.116Z,81.70
2018-08-30T04:07:28.008Z,82.90
2018-08-30T04:09:56.990Z,81.70
2018-08-30T04:12:26.048Z,81.90
2018-08-30T04:14:55.044Z,82.30
2018-08-30T04:17:24.023Z,82.70
2018-08-30T04:19:52.954Z,83.00
2018-08-30T04:22:21.890Z,83.30
2018-08-30T04:24:50.864Z,83.60
2018-08-30T04:27:19.805Z,83.90
2018-08-30T04:29:48.783Z,84.30
2018-08-30T04:32:17.801Z,84.80
2018-08-30T04:34:46.799Z,85.30
2018-08-30T04:37:15.813Z,85.50
2018-08-30T04:39:44.740Z,86.40
2018-08-30T04:42:13.723Z,86.50
2018-08-30T04:44:42.674Z,86.80
2018-08-30T04:47:11.747Z,87.00
2018-08-30T04:49:40.694Z,87.20
2018-08-30T04:52:09.730Z,87.30
2018-08-30T04:54:38.669Z,86.90
2018-08-30T04:57:07.715Z,87.50
2018-08-30T04:59:36.764Z,85.50
2018-08-30T05:02:05.882Z,85.20
2018-08-30T05:04:34.943Z,84.90
2018-08-30T05:07:03.948Z,85.00
2018-08-30T05:09:32.820Z,85.00
2018-08-30T05:12:01.853Z,85.20
2018-08-30T05:14:30.813Z,85.00
2018-08-30T05:16:59.828Z,84.40
2018-08-30T05:19:28.846Z,83.90
2018-08-30T05:21:57.819Z,83.80
2018-08-30T05:24:26.797Z,83.30
2018-08-30T05:26:55.824Z,82.30
2018-08-30T05:29:24.845Z,80.50
2018-08-30T05:31:53.807Z,79.90
2018-08-30T05:34:22.781Z,79.10
2018-08-30T05:36:51.709Z,78.90
2018-08-30T05:39:20.730Z,79.30
2018-08-30T05:41:49.746Z,78.50
2018-08-30T05:44:18.769Z,78.20
2018-08-30T05:46:47.849Z,78.70
2018-08-30T05:49:16.921Z,77.80
2018-08-30T05:51:45.804Z,78.80
2018-08-30T05:54:14.838Z,78.50
2018-08-30T05:56:44.482Z,79.40
2018-08-30T05:59:13.405Z,80.40
2018-08-30T06:01:42.379Z,80.30
2018-08-30T06:04:11.355Z,82.50
2018-08-30T06:06:40.387Z,82.50
2018-08-30T06:09:09.301Z,82.60
2018-08-30T06:11:38.220Z,82.90
2018-08-30T06:14:07.234Z,82.00
2018-08-30T06:16:36.316Z,80.90
2018-08-30T06:19:05.395Z,80.50
2018-08-30T06:21:34.451Z,79.40
2018-08-30T06:24:03.448Z,77.90
2018-08-30T06:26:32.521Z,78.60
2018-08-30T06:29:01.542Z,78.60
2018-08-30T06:31:30.529Z,76.50
2018-08-30T06:33:59.535Z,75.80
2018-08-30T06:36:28.503Z,75.70
2018-08-30T06:38:57.418Z,75.10
2018-08-30T06:41:26.427Z,75.40
2018-08-30T06:43:55.355Z,75.40
2018-08-30T06:46:24.349Z,74.50
2018-08-30T06:48:53.315Z,73.50
2018-08-30T06:51:22.335Z,72.00
2018-08-30T06:53:51.396Z,71.30
2018-08-30T06:56:20.620Z,69.10
2018-08-30T06:58:49.728Z,68.30
2018-08-30T07:01:18.632Z,68.00
2018-08-30T07:03:47.571Z,67.60
2018-08-30T07:06:16.690Z,67.60
2018-08-30T07:08:45.710Z,66.80
2018-08-30T07:11:14.724Z,66.80
2018-08-30T07:13:43.798Z,66.60
2018-08-30T07:16:12.890Z,66.10
2018-08-30T07:18:41.822Z,65.00
2018-08-30T07:21:10.907Z,63.80
2018-08-30T07:23:39.933Z,63.30
2018-08-30T07:26:08.926Z,63.60
2018-08-30T07:28:38.054Z,62.10
2018-08-30T07:31:07.176Z,60.20
2018-08-30T07:33:36.378Z,59.40
2018-08-30T07:36:05.480Z,58.40
2018-08-30T07:38:34.451Z,58.30
2018-08-30T07:41:03.445Z,58.20
2018-08-30T07:43:32.427Z,58.30
2018-08-30T07:46:01.578Z,58.70
2018-08-30T07:48:30.881Z,58.30
2018-08-30T07:51:00.019Z,58.30
2018-08-30T07:53:29.048Z,56.80
2018-08-30T07:55:58.137Z,55.00
2018-08-30T07:58:27.107Z,54.20
2018-08-30T08:00:56.333Z,53.70
2018-08-30T08:03:25.356Z,54.20
2018-08-30T08:05:54.417Z,53.00
2018-08-30T08:08:23.462Z,54.00
2018-08-30T08:10:52.482Z,53.60
2018-08-30T08:13:21.535Z,53.80
2018-08-30T08:15:50.707Z,54.00
2018-08-30T08:18:20.341Z,53.60
2018-08-30T08:20:49.518Z,52.70
2018-08-30T08:23:18.740Z,51.60
2018-08-30T08:25:47.775Z,50.60
2018-08-30T08:28:16.845Z,50.40
2018-08-30T08:30:45.909Z,49.50
2018-08-30T08:33:14.937Z,49.60
2018-08-30T08:35:43.868Z,49.70
2018-08-30T08:38:12.962Z,49.00
2018-08-30T08:40:42.054Z,49.80
2018-08-30T08:43:11.060Z,48.80
2018-08-30T08:45:40.169Z,48.40
2018-08-30T08:48:09.169Z,48.70
2018-08-30T08:50:38.202Z,47.60
2018-08-30T08:53:07.261Z,46.70
2018-08-30T08:55:36.225Z,47.10
2018-08-30T08:58:05.887Z,47.70
2018-08-30T09:00:34.907Z,46.80
2018-08-30T09:03:04.135Z,46.40
2018-08-30T09:05:33.571Z,45.50
2018-08-30T09:08:02.720Z,45.50
2018-08-30T09:10:31.902Z,43.50
2018-08-30T09:13:01.118Z,42.20
2018-08-30T09:15:30.274Z,44.10
2018-08-30T09:17:59.510Z,44.90
2018-08-30T09:20:28.602Z,45.40
2018-08-30T09:22:57.722Z,45.00
2018-08-30T09:25:26.779Z,45.60
2018-08-30T09:27:55.870Z,45.50
2018-08-30T09:30:24.883Z,45.40
2018-08-30T09:32:53.987Z,43.90
2018-08-30T09:35:23.014Z,43.90
2018-08-30T09:37:52.090Z,43.90
2018-08-30T09:40:21.289Z,43.10
2018-08-30T09:42:50.450Z,42.50
2018-08-30T09:45:19.606Z,41.70
2018-08-30T09:47:48.867Z,41.70
2018-08-30T09:50:18.028Z,41.30
2018-08-30T09:52:47.211Z,41.60
2018-08-30T09:55:16.374Z,40.80
2018-08-30T09:57:45.293Z,41.00
2018-08-30T10:00:18.480Z,41.20
2018-08-30T10:02:49.365Z,41.40
2018-08-30T10:05:18.766Z,41.10
2018-08-30T10:07:47.909Z,40.90
2018-08-30T10:10:16.969Z,41.50
2018-08-30T10:12:46.078Z,42.00
2018-08-30T10:15:15.059Z,41.40
2018-08-30T10:17:43.987Z,41.00
2018-08-30T10:20:13.149Z,40.60
2018-08-30T10:22:42.175Z,39.80
2018-08-30T10:25:11.173Z,39.50
2018-08-30T10:27:40.266Z,39.30
2018-08-30T10:30:09.383Z,40.10
2018-08-30T10:32:38.491Z,40.20
2018-08-30T10:35:07.650Z,39.60
2018-08-30T10:37:36.727Z,39.10
2018-08-30T10:40:05.791Z,39.80
2018-08-30T10:42:34.819Z,40.50
2018-08-30T10:45:03.977Z,38.80
2018-08-30T10:47:33.153Z,39.30
2018-08-30T10:50:02.226Z,39.90
2018-08-30T10:52:31.323Z,40.20
2018-08-30T10:55:00.359Z,40.20
2018-08-30T10:57:29.472Z,40.00
2018-08-30T10:59:58.677Z,38.40
2018-08-30T11:02:27.793Z,38.80
2018-08-30T11:04:56.994Z,38.60
2018-08-30T11:07:26.148Z,38.20
2018-08-30T11:09:55.141Z,37.90
2018-08-30T11:12:24.246Z,37.50
2018-08-30T11:14:53.306Z,37.00
2018-08-30T11:17:22.386Z,36.80
2018-08-30T11:19:51.409Z,37.00
2018-08-30T11:22:20.472Z,37.00
2018-08-30T11:24:49.482Z,37.80
2018-08-30T11:27:18.675Z,38.00
2018-08-30T11:29:47.824Z,38.30
2018-08-30T11:32:17.009Z,38.10
2018-08-30T11:34:46.026Z,37.40
2018-08-30T11:37:15.068Z,37.80
2018-08-30T11:39:44.084Z,37.80
2018-08-30T11:42:13.011Z,37.20
2018-08-30T11:44:42.092Z,37.10
2018-08-30T11:47:11.073Z,37.20
2018-08-30T11:49:39.931Z,37.20
2018-08-30T11:52:09.020Z,37.60
2018-08-30T11:54:37.989Z,36.50
2018-08-30T11:57:06.999Z,38.30
2018-08-30T11:59:36.034Z,37.90
2018-08-30T12:02:05.188Z,37.50
2018-08-30T12:04:34.253Z,37.50
2018-08-30T12:07:03.333Z,37.40
2018-08-30T12:09:32.273Z,38.00
2018-08-30T12:12:02.147Z,38.20
2018-08-30T12:14:31.083Z,35.60
2018-08-30T12:17:00.382Z,37.40
2018-08-30T12:19:29.381Z,37.30
2018-08-30T12:21:58.361Z,36.60
2018-08-30T12:24:27.358Z,37.00
2018-08-30T12:26:56.348Z,37.30
2018-08-30T12:29:25.398Z,37.00
2018-08-30T12:31:54.402Z,37.40
2018-08-30T12:34:23.471Z,38.40
2018-08-30T12:36:52.496Z,37.80
2018-08-30T12:39:21.492Z,37.20
2018-08-30T12:41:50.581Z,37.40
2018-08-30T12:44:19.719Z,37.00
2018-08-30T12:46:48.713Z,37.10
2018-08-30T12:49:17.805Z,37.10
2018-08-30T12:51:46.900Z,37.40
2018-08-30T12:54:15.870Z,38.00
2018-08-30T12:56:44.957Z,39.00
2018-08-30T12:59:16.533Z,39.80
2018-08-30T13:01:46.043Z,40.90
2018-08-30T13:04:15.100Z,41.20
2018-08-30T13:06:45.926Z,41.80
2018-08-30T13:09:16.100Z,42.10
2018-08-30T13:11:44.933Z,41.40
2018-08-30T13:14:13.983Z,41.80
2018-08-30T13:16:42.999Z,41.30
2018-08-30T13:19:12.196Z,41.30
2018-08-30T13:21:41.330Z,41.80
2018-08-30T13:24:10.484Z,40.40
2018-08-30T13:26:39.498Z,38.20
2018-08-30T13:29:08.640Z,36.10
2018-08-30T13:31:37.674Z,35.00
2018-08-30T13:34:06.987Z,34.20
2018-08-30T13:36:35.829Z,33.80
2018-08-30T13:39:06.805Z,34.90
2018-08-30T13:41:35.856Z,36.60
2018-08-30T13:44:05.701Z,36.80
2018-08-30T13:46:34.710Z,38.10
2018-08-30T13:49:03.888Z,39.30
2018-08-30T13:51:32.943Z,40.20
2018-08-30T13:54:02.055Z,40.90
2018-08-30T13:56:31.204Z,41.80
2018-08-30T13:59:00.314Z,42.60
2018-08-30T14:01:29.685Z,42.90
2018-08-30T14:03:58.132Z,42.50
2018-08-30T14:06:27.254Z,40.30
2018-08-30T14:08:56.390Z,40.40
2018-08-30T14:11:25.242Z,40.50
2018-08-30T14:13:54.299Z,41.50
2018-08-30T14:16:23.166Z,42.20
2018-08-30T14:18:52.315Z,42.90
2018-08-30T14:21:21.333Z,43.40
2018-08-30T14:23:50.322Z,43.80
2018-08-30T14:26:19.365Z,45.40
2018-08-30T14:28:48.351Z,45.30
2018-08-30T14:31:17.456Z,46.00
2018-08-30T14:33:46.640Z,46.60
2018-08-30T14:36:15.807Z,47.10
2018-08-30T14:38:45.003Z,47.20
2018-08-30T14:41:14.167Z,47.50
2018-08-30T14:43:43.207Z,48.40
2018-08-30T14:46:12.312Z,48.90
2018-08-30T14:48:41.273Z,49.10
2018-08-30T14:51:10.476Z,49.60
2018-08-30T14:53:39.636Z,49.40
2018-08-30T14:56:08.786Z,48.90
2018-08-30T14:58:37.862Z,49.00
2018-08-30T15:01:07.091Z,49.30
2018-08-30T15:03:36.035Z,48.70
2018-08-30T15:06:05.225Z,49.10
2018-08-30T15:08:34.071Z,49.10
2018-08-30T15:11:03.098Z,48.70
2018-08-30T15:13:32.149Z,48.70
2018-08-30T15:16:01.282Z,48.70
2018-08-30T15:18:30.429Z,49.10
2018-08-30T15:20:59.530Z,49.40
2018-08-30T15:23:28.700Z,49.40
2018-08-30T15:25:57.681Z,49.70
2018-08-30T15:28:26.672Z,50.40
2018-08-30T15:30:55.799Z,50.80
2018-08-30T15:33:24.888Z,51.80
2018-08-30T15:35:54.555Z,52.50
2018-08-30T15:38:23.597Z,54.00
2018-08-30T15:40:52.709Z,55.90
2018-08-30T15:43:21.783Z,57.60
2018-08-30T15:45:50.870Z,58.60
2018-08-30T15:48:20.033Z,59.20
2018-08-30T15:50:49.103Z,62.10
2018-08-30T15:53:18.291Z,62.90
2018-08-30T15:55:47.334Z,65.40
2018-08-30T15:58:16.459Z,67.00
2018-08-30T16:00:45.587Z,69.10
2018-08-30T16:03:14.674Z,71.90
2018-08-30T16:05:43.700Z,73.10
2018-08-30T16:08:12.754Z,75.50
2018-08-30T16:10:41.809Z,77.20
2018-08-30T16:13:10.835Z,81.10
2018-08-30T16:15:39.854Z,80.80
2018-08-30T16:18:08.816Z,81.30
2018-08-30T16:20:38.175Z,82.10
2018-08-30T16:23:20.144Z,82.40
2018-08-30T16:25:49.133Z,83.70
2018-08-30T16:28:18.020Z,83.80
2018-08-30T16:30:47.213Z,84.90
2018-08-30T16:33:16.427Z,86.40
2018-08-30T16:35:45.267Z,86.50
2018-08-30T16:38:15.040Z,86.40
2018-08-30T16:40:44.727Z,86.80
2018-08-30T16:43:13.680Z,87.50
2018-08-30T16:45:43.188Z,88.10
2018-08-30T16:48:12.204Z,87.70
2018-08-30T16:50:41.317Z,87.90
2018-08-30T16:53:10.445Z,87.70
2018-08-30T16:55:39.586Z,87.60
2018-08-30T16:58:08.608Z,87.70
2018-08-30T17:00:37.651Z,87.90
2018-08-30T17:03:07.172Z,87.90
2018-08-30T17:05:36.522Z,85.90
2018-08-30T17:08:06.090Z,87.10
2018-08-30T17:10:35.129Z,88.10
2018-08-30T17:13:04.163Z,88.50
2018-08-30T17:15:33.162Z,89.70
2018-08-30T17:18:02.120Z,89.40
2018-08-30T17:20:40.728Z,89.30
2018-08-30T17:23:10.025Z,89.10
2018-08-30T17:25:39.067Z,89.30
2018-08-30T17:28:08.119Z,87.50
2018-08-30T17:30:37.188Z,88.60
2018-08-30T17:33:06.484Z,89.10
2018-08-30T17:35:35.583Z,89.00
2018-08-30T17:38:04.791Z,89.70
2018-08-30T17:40:33.884Z,90.20
2018-08-30T17:43:03.034Z,90.30
2018-08-30T17:45:32.532Z,90.10
2018-08-30T17:48:01.494Z,90.30
2018-08-30T17:50:30.777Z,90.40
2018-08-30T17:52:59.792Z,90.70
2018-08-30T17:55:28.887Z,90.60
2018-08-30T17:57:57.947Z,90.50
2018-08-30T18:00:26.962Z,90.70
2018-08-30T18:02:56.020Z,90.90
2018-08-30T18:05:25.143Z,90.70
2018-08-30T18:07:54.252Z,90.50
2018-08-30T18:10:23.543Z,90.50
2018-08-30T18:12:52.668Z,90.40
2018-08-30T18:15:21.727Z,90.40
2018-08-30T18:17:50.825Z,90.40
2018-08-30T18:20:19.842Z,90.50
2018-08-30T18:22:48.969Z,90.70
2018-08-30T18:25:18.159Z,90.20
2018-08-30T18:27:47.230Z,90.30
2018-08-30T18:30:16.327Z,90.50
2018-08-30T18:32:45.450Z,90.70
2018-08-30T18:35:14.553Z,91.20
2018-08-30T18:37:43.613Z,91.10
2018-08-30T18:40:12.723Z,91.20
2018-08-30T18:42:41.805Z,91.20
2018-08-30T18:45:10.890Z,91.10
2018-08-30T18:47:39.924Z,91.20
2018-08-30T18:50:09.076Z,91.10
2018-08-30T18:52:39.719Z,91.30
2018-08-30T18:55:08.729Z,91.40
2018-08-30T18:57:37.762Z,91.60
2018-08-30T19:00:07.937Z,91.70
2018-08-30T19:02:37.015Z,91.60
2018-08-30T19:05:06.006Z,91.70
2018-08-30T19:07:35.112Z,91.70
2018-08-30T19:10:04.237Z,91.70
2018-08-30T19:12:33.260Z,91.80
2018-08-30T19:15:06.522Z,91.20
2018-08-30T19:17:40.985Z,91.40
2018-08-30T19:20:10.050Z,90.80
2018-08-30T19:22:39.094Z,90.90
2018-08-30T19:25:15.670Z,91.30
2018-08-30T19:27:46.160Z,91.40
2018-08-30T19:30:20.671Z,91.70
2018-08-30T19:32:49.787Z,91.70
2018-08-30T19:35:24.064Z,91.30
2018-08-30T19:37:53.047Z,90.70
2018-08-30T19:40:27.210Z,91.30
2018-08-30T19:42:57.235Z,91.70
2018-08-30T19:45:28.763Z,91.40
2018-08-30T19:47:58.438Z,91.70
2018-08-30T19:50:28.365Z,91.90
2018-08-30T19:52:57.406Z,92.00
2018-08-30T19:55:26.452Z,91.80
2018-08-30T19:57:55.427Z,91.60
2018-08-30T20:00:24.591Z,91.90
2018-08-30T20:02:53.788Z,92.00
2018-08-30T20:05:22.853Z,92.20
2018-08-30T20:07:51.902Z,92.50
2018-08-30T20:10:21.191Z,92.40
2018-08-30T20:12:50.189Z,92.40
2018-08-30T20:15:19.169Z,91.90
2018-08-30T20:17:48.154Z,92.20
2018-08-30T20:20:17.141Z,92.20
2018-08-30T20:22:46.189Z,92.00
2018-08-30T20:25:15.252Z,92.40
2018-08-30T20:27:44.261Z,92.10
2018-08-30T20:30:13.356Z,91.90
2018-08-30T20:32:42.354Z,92.00
2018-08-30T20:35:11.422Z,92.10
2018-08-30T20:37:40.434Z,92.10
2018-08-30T20:40:09.532Z,92.20
2018-08-30T20:42:38.607Z,92.30
2018-08-30T20:45:07.633Z,92.30
2018-08-30T20:47:36.574Z,91.90
2018-08-30T20:50:05.659Z,91.90
2018-08-30T20:52:34.703Z,92.30
2018-08-30T20:55:03.719Z,92.30
2018-08-30T20:57:32.767Z,92.40
2018-08-30T21:00:01.906Z,92.10
2018-08-30T21:02:30.871Z,92.40
2018-08-30T21:04:59.807Z,92.40
2018-08-30T21:07:28.908Z,92.40
2018-08-30T21:09:57.892Z,92.70
2018-08-30T21:12:26.927Z,92.80
2018-08-30T21:14:55.863Z,92.80
2018-08-30T21:17:24.869Z,92.80
2018-08-30T21:19:53.824Z,92.80
2018-08-30T21:22:22.812Z,92.70
2018-08-30T21:24:51.721Z,92.70
2018-08-30T21:27:20.652Z,92.80
2018-08-30T21:29:49.656Z,92.70
2018-08-30T21:32:18.651Z,92.80
2018-08-30T21:34:47.609Z,92.70
2018-08-30T21:37:16.556Z,92.80
2018-08-30T21:39:45.472Z,92.90
2018-08-30T21:42:15.446Z,93.10
2018-08-30T21:44:44.372Z,93.10
2018-08-30T21:47:13.303Z,93.10
2018-08-30T21:49:42.341Z,93.00
2018-08-30T21:52:11.284Z,93.10
2018-08-30T21:54:40.270Z,92.80
2018-08-30T21:57:09.228Z,92.70
2018-08-30T21:59:38.211Z,92.40
2018-08-30T22:02:07.290Z,92.30
2018-08-30T22:04:36.465Z,92.30
2018-08-30T22:07:05.410Z,91.90
2018-08-30T22:09:34.471Z,91.80
2018-08-30T22:12:03.560Z,91.90
2018-08-30T22:14:32.512Z,91.60
2018-08-30T22:17:01.443Z,91.60
2018-08-30T22:19:30.427Z,91.70
2018-08-30T22:21:59.398Z,91.60
2018-08-30T22:24:29.259Z,90.60
2018-08-30T22:26:58.290Z,91.90
2018-08-30T22:29:27.243Z,92.00
2018-08-30T22:31:56.222Z,92.50
2018-08-30T22:34:25.208Z,92.50
2018-08-30T22:36:54.233Z,92.70
2018-08-30T22:39:23.201Z,92.80
2018-08-30T22:41:52.182Z,92.90
2018-08-30T22:44:21.715Z,92.90
2018-08-30T22:46:50.800Z,92.70
2018-08-30T22:49:19.710Z,92.10
2018-08-30T22:51:48.676Z,91.00
2018-08-30T22:54:17.635Z,90.70
2018-08-30T22:56:46.821Z,91.50
2018-08-30T22:59:15.938Z,92.10
2018-08-30T23:01:44.891Z,92.30
2018-08-30T23:04:13.853Z,92.50
2018-08-30T23:06:43.027Z,92.80
2018-08-30T23:09:12.135Z,93.00
2018-08-30T23:11:41.162Z,93.20
2018-08-30T23:14:10.146Z,93.30
2018-08-30T23:16:39.224Z,93.30
2018-08-30T23:19:08.335Z,93.40
2018-08-30T23:21:37.332Z,93.80
2018-08-30T23:24:06.708Z,93.50
2018-08-30T23:26:35.655Z,93.60
2018-08-30T23:29:04.659Z,93.70
2018-08-30T23:31:33.668Z,93.70
2018-08-30T23:34:02.663Z,93.60
2018-08-30T23:36:31.578Z,93.50
2018-08-30T23:39:00.556Z,93.30
2018-08-30T23:41:29.564Z,93.30
2018-08-30T23:43:58.660Z,93.50
2018-08-30T23:46:27.636Z,93.60
2018-08-30T23:48:56.632Z,93.60
2018-08-30T23:51:25.771Z,93.70
2018-08-30T23:53:54.719Z,93.80
2018-08-30T23:56:23.754Z,93.90
2018-08-30T23:59:03.733Z,93.90
